createdAt,value
2022-12-23T00:01:53.191Z,0.40
2022-12-23T00:04:20.588Z,0.50
2022-12-23T00:06:47.989Z,0.32
2022-12-23T00:09:15.235Z,0.50
2022-12-23T00:12:02.276Z,0.77
2022-12-23T00:14:47.927Z,0.40
2022-12-23T00:17:22.769Z,0.40
2022-12-23T00:19:50.447Z,0.50
2022-12-23T00:22:17.682Z,0.30
2022-12-23T00:24:44.846Z,0.30
2022-12-23T00:27:12.015Z,0.57
2022-12-23T00:29:39.103Z,0.40
2022-12-23T00:32:06.520Z,0.35
2022-12-23T00:34:33.675Z,0.40
2022-12-23T00:37:00.766Z,0.50
2022-12-23T00:39:46.266Z,0.45
2022-12-23T00:42:31.997Z,0.43
2022-12-23T00:45:15.848Z,0.30
2022-12-23T00:48:05.674Z,0.43
2022-12-23T00:50:35.556Z,0.40
2022-12-23T00:53:02.692Z,0.32
2022-12-23T00:55:30.008Z,0.30
2022-12-23T00:57:57.020Z,0.30
2022-12-23T01:00:44.309Z,0.38
2022-12-23T01:03:32.288Z,0.40
2022-12-23T01:06:01.291Z,0.38
2022-12-23T01:08:28.998Z,0.50
2022-12-23T01:10:56.247Z,0.40
2022-12-23T01:13:23.280Z,0.28
2022-12-23T01:15:50.625Z,0.32
2022-12-23T01:18:17.601Z,0.50
2022-12-23T01:20:44.585Z,0.50
2022-12-23T01:23:11.525Z,0.30
2022-12-23T01:25:38.437Z,0.35
2022-12-23T01:28:05.708Z,0.40
2022-12-23T01:30:32.697Z,0.40
2022-12-23T01:32:59.648Z,0.40
2022-12-23T01:35:26.597Z,0.40
2022-12-23T01:37:53.635Z,0.32
2022-12-23T01:40:20.595Z,0.30
2022-12-23T01:42:47.727Z,0.40
2022-12-23T01:45:19.662Z,0.20
2022-12-23T01:47:51.345Z,0.25
2022-12-23T01:50:29.094Z,0.30
2022-12-23T01:53:09.861Z,0.30
2022-12-23T01:55:44.641Z,0.30
2022-12-23T01:58:39.584Z,0.30
2022-12-23T02:01:26.262Z,0.50
2022-12-23T02:03:58.092Z,0.20
2022-12-23T02:07:08.623Z,0.20
2022-12-23T02:09:40.426Z,0.30
2022-12-23T02:12:25.022Z,0.20
2022-12-23T02:15:10.590Z,0.30
2022-12-23T02:17:46.946Z,0.30
2022-12-23T02:20:35.351Z,0.30
2022-12-23T02:23:34.781Z,0.20
2022-12-23T02:26:15.407Z,0.20
2022-12-23T02:29:09.740Z,0.30
2022-12-23T02:31:50.736Z,0.30
2022-12-23T02:34:30.053Z,0.20
2022-12-23T02:37:18.804Z,0.20
2022-12-23T02:39:59.182Z,0.30
2022-12-23T02:42:37.589Z,0.30
2022-12-23T02:45:35.703Z,0.63
2022-12-23T02:48:29.954Z,0.30
2022-12-23T02:50:58.752Z,0.40
2022-12-23T02:53:31.745Z,0.20
2022-12-23T02:56:00.347Z,0.20
2022-12-23T02:58:32.442Z,0.28
2022-12-23T03:01:00.816Z,0.28
2022-12-23T03:03:29.572Z,0.20
2022-12-23T03:05:56.949Z,0.30
2022-12-23T03:08:34.762Z,0.40
2022-12-23T03:11:11.517Z,0.30
2022-12-23T03:13:38.429Z,0.28
2022-12-23T03:16:18.235Z,0.30
2022-12-23T03:18:54.098Z,0.40
2022-12-23T03:21:46.586Z,0.30
2022-12-23T03:24:27.629Z,0.30
2022-12-23T03:27:01.015Z,0.20
2022-12-23T03:29:38.444Z,0.35
2022-12-23T03:32:06.905Z,0.20
2022-12-23T03:34:39.392Z,0.40
2022-12-23T03:37:09.944Z,0.30
2022-12-23T03:39:47.243Z,0.20
2022-12-23T03:42:22.719Z,0.20
2022-12-23T03:45:27.852Z,0.20
2022-12-23T03:47:49.054Z,0.22
2022-12-23T03:50:18.831Z,0.30
2022-12-23T03:53:00.824Z,0.30
2022-12-23T03:55:35.960Z,0.20
2022-12-23T03:58:16.566Z,0.40
2022-12-23T04:01:05.993Z,0.30
2022-12-23T04:03:49.309Z,0.30
2022-12-23T04:06:19.965Z,0.50
2022-12-23T04:08:48.990Z,0.20
2022-12-23T04:11:16.540Z,0.20
2022-12-23T04:13:43.823Z,0.22
2022-12-23T04:16:11.348Z,0.20
2022-12-23T04:18:39.091Z,0.20
2022-12-23T04:21:06.463Z,0.20
2022-12-23T04:23:33.422Z,0.32
2022-12-23T04:26:00.401Z,0.20
2022-12-23T04:28:27.372Z,0.20
2022-12-23T04:30:54.409Z,0.20
2022-12-23T04:33:21.396Z,0.20
2022-12-23T04:35:48.513Z,0.20
2022-12-23T04:38:15.485Z,0.30
2022-12-23T04:40:48.664Z,0.20
2022-12-23T04:43:15.610Z,0.20
2022-12-23T04:45:42.556Z,0.30
2022-12-23T04:48:09.896Z,0.30
2022-12-23T04:50:37.052Z,0.20
2022-12-23T04:53:03.966Z,0.30
2022-12-23T04:55:30.983Z,0.20
2022-12-23T04:57:58.117Z,0.20
2022-12-23T05:00:25.142Z,0.30
2022-12-23T05:02:52.519Z,0.20
2022-12-23T05:05:19.664Z,0.30
2022-12-23T05:07:50.014Z,0.20
2022-12-23T05:10:17.182Z,0.30
2022-12-23T05:12:44.069Z,0.32
2022-12-23T05:15:11.421Z,0.20
2022-12-23T05:17:38.441Z,0.30
2022-12-23T05:20:05.717Z,0.20
2022-12-23T05:22:32.895Z,0.30
2022-12-23T05:24:59.924Z,0.32
2022-12-23T05:27:27.219Z,0.20
2022-12-23T05:29:54.242Z,0.30
2022-12-23T05:32:21.711Z,0.20
2022-12-23T05:34:48.714Z,0.30
2022-12-23T05:37:15.687Z,0.30
2022-12-23T05:39:42.719Z,0.20
2022-12-23T05:42:09.760Z,0.30
2022-12-23T05:44:36.786Z,0.40
2022-12-23T05:47:03.800Z,0.30
2022-12-23T05:49:30.793Z,0.30
2022-12-23T05:51:58.070Z,0.30
2022-12-23T05:54:25.383Z,0.43
2022-12-23T05:56:52.546Z,0.30
2022-12-23T05:59:19.554Z,0.30
2022-12-23T06:01:46.640Z,0.30
2022-12-23T06:04:13.947Z,0.25
2022-12-23T06:06:41.330Z,0.20
2022-12-23T06:09:09.566Z,0.22
2022-12-23T06:11:36.636Z,0.20
2022-12-23T06:14:03.849Z,0.20
2022-12-23T06:16:31.029Z,0.28
2022-12-23T06:18:58.082Z,0.40
2022-12-23T06:21:27.926Z,0.30
2022-12-23T06:23:54.945Z,0.40
2022-12-23T06:26:21.980Z,0.30
2022-12-23T06:28:48.948Z,0.30
2022-12-23T06:31:16.811Z,0.30
2022-12-23T06:33:44.042Z,0.30
2022-12-23T06:36:11.318Z,0.60
2022-12-23T06:38:38.661Z,0.50
2022-12-23T06:41:05.748Z,0.40
2022-12-23T06:43:32.737Z,0.50
2022-12-23T06:45:59.786Z,0.40
2022-12-23T06:48:27.053Z,0.30
2022-12-23T06:50:54.048Z,0.35
2022-12-23T06:53:21.017Z,0.30
2022-12-23T06:55:47.961Z,0.60
2022-12-23T06:58:14.982Z,0.40
2022-12-23T07:00:42.072Z,0.30
2022-12-23T07:03:09.198Z,0.55
2022-12-23T07:05:37.828Z,0.88
2022-12-23T07:08:05.442Z,0.30
2022-12-23T07:10:33.584Z,0.30
2022-12-23T07:13:01.979Z,0.50
2022-12-23T07:15:28.992Z,0.70
2022-12-23T07:17:56.010Z,1.88
2022-12-23T07:20:22.961Z,7.30
2022-12-23T07:22:53.405Z,9.88
2022-12-23T07:25:20.420Z,9.45
2022-12-23T07:27:47.488Z,1.80
2022-12-23T07:30:14.597Z,0.50
2022-12-23T07:32:41.580Z,0.40
2022-12-23T07:35:08.858Z,0.50
2022-12-23T07:37:35.962Z,0.40
2022-12-23T07:40:08.302Z,0.80
2022-12-23T07:42:45.699Z,0.70
2022-12-23T07:45:13.694Z,0.90
2022-12-23T07:47:40.694Z,0.90
2022-12-23T07:50:08.215Z,1.00
2022-12-23T07:52:35.303Z,1.23
2022-12-23T07:55:02.301Z,1.15
2022-12-23T07:57:29.513Z,0.90
2022-12-23T07:59:56.636Z,0.70
2022-12-23T08:02:25.444Z,0.90
2022-12-23T08:04:53.129Z,1.00
2022-12-23T08:07:20.266Z,0.77
2022-12-23T08:09:47.536Z,0.40
2022-12-23T08:12:14.465Z,0.70
2022-12-23T08:14:41.460Z,0.90
2022-12-23T08:17:09.016Z,1.00
2022-12-23T08:19:36.501Z,0.60
2022-12-23T08:22:03.696Z,0.80
2022-12-23T08:24:30.756Z,0.90
2022-12-23T08:26:58.432Z,0.70
2022-12-23T08:29:25.505Z,0.32
2022-12-23T08:31:54.195Z,0.28
2022-12-23T08:34:21.210Z,0.30
2022-12-23T08:36:48.213Z,0.30
2022-12-23T08:39:15.786Z,0.28
2022-12-23T08:41:45.529Z,0.20
2022-12-23T08:44:13.813Z,0.35
2022-12-23T08:46:41.177Z,0.30
2022-12-23T08:49:09.158Z,0.25
2022-12-23T08:51:37.125Z,0.30
2022-12-23T08:54:05.036Z,0.20
2022-12-23T08:56:34.690Z,0.30
2022-12-23T08:59:02.432Z,0.30
2022-12-23T09:01:32.265Z,5.22
2022-12-23T09:04:04.123Z,2.78
2022-12-23T09:06:35.611Z,4.90
2022-12-23T09:09:02.692Z,2.88
2022-12-23T09:11:30.140Z,1.10
2022-12-23T09:13:59.209Z,1.30
2022-12-23T09:16:27.344Z,2.10
2022-12-23T09:18:54.470Z,2.80
2022-12-23T09:21:23.125Z,1.65
2022-12-23T09:23:50.728Z,1.90
2022-12-23T09:26:27.255Z,1.50
2022-12-23T09:28:54.822Z,3.33
2022-12-23T09:31:22.864Z,1.50
2022-12-23T09:33:51.787Z,1.20
2022-12-23T09:36:19.585Z,0.80
2022-12-23T09:38:47.090Z,0.90
2022-12-23T09:41:46.405Z,39.83
2022-12-23T09:44:25.118Z,26.52
2022-12-23T09:46:58.286Z,13.60
2022-12-23T09:49:25.391Z,7.20
2022-12-23T09:51:58.032Z,5.30
2022-12-23T09:54:29.561Z,1.70
2022-12-23T09:57:20.144Z,0.50
2022-12-23T10:00:08.519Z,0.80
2022-12-23T10:02:53.982Z,0.40
2022-12-23T10:05:47.916Z,0.40
2022-12-23T10:08:32.365Z,0.55
2022-12-23T10:11:15.135Z,0.60
2022-12-23T10:13:46.984Z,0.50
2022-12-23T10:16:20.989Z,0.52
2022-12-23T10:19:07.079Z,0.50
2022-12-23T10:21:47.819Z,0.90
2022-12-23T10:24:18.125Z,1.05
2022-12-23T10:27:18.350Z,1.00
2022-12-23T10:29:45.670Z,0.90
2022-12-23T10:32:56.504Z,0.70
2022-12-23T10:35:44.429Z,0.70
2022-12-23T10:38:19.226Z,0.70
2022-12-23T10:40:49.391Z,0.65
2022-12-23T10:43:43.428Z,0.60
2022-12-23T10:46:28.830Z,0.57
2022-12-23T10:48:55.967Z,0.70
2022-12-23T10:51:42.852Z,0.50
2022-12-23T10:54:14.780Z,0.70
2022-12-23T10:56:42.699Z,0.90
2022-12-23T10:59:15.025Z,1.15
2022-12-23T11:01:47.900Z,1.13
2022-12-23T11:04:19.595Z,0.60
2022-12-23T11:07:10.587Z,0.75
2022-12-23T11:09:43.652Z,0.98
2022-12-23T11:12:12.910Z,0.85
2022-12-23T11:14:49.853Z,1.30
2022-12-23T11:17:23.615Z,1.00
2022-12-23T11:20:19.307Z,1.50
2022-12-23T11:22:55.257Z,0.90
2022-12-23T11:25:37.599Z,0.55
2022-12-23T11:28:10.474Z,0.60
2022-12-23T11:30:56.184Z,0.68
2022-12-23T11:33:34.264Z,0.73
2022-12-23T11:36:05.381Z,1.40
2022-12-23T11:38:34.022Z,0.70
2022-12-23T11:41:02.259Z,0.50
2022-12-23T11:43:31.460Z,0.80
2022-12-23T11:46:29.550Z,1.13
2022-12-23T11:49:26.937Z,1.20
2022-12-23T11:52:05.777Z,1.50
2022-12-23T11:54:34.127Z,0.85
2022-12-23T11:57:05.009Z,1.10
2022-12-23T11:59:42.168Z,1.02
2022-12-23T12:02:35.109Z,1.02
2022-12-23T12:05:16.867Z,1.05
2022-12-23T12:07:45.197Z,1.20
2022-12-23T12:10:28.290Z,1.00
2022-12-23T12:13:02.719Z,1.00
2022-12-23T12:15:42.925Z,0.95
2022-12-23T12:18:14.769Z,0.73
2022-12-23T12:20:52.953Z,0.80
2022-12-23T12:23:46.594Z,0.98
2022-12-23T12:26:36.192Z,0.80
2022-12-23T12:29:18.604Z,1.33
2022-12-23T12:31:54.296Z,1.05
2022-12-23T12:34:41.524Z,1.15
2022-12-23T12:37:23.678Z,1.33
2022-12-23T12:40:04.059Z,0.90
2022-12-23T12:42:57.383Z,1.00
2022-12-23T12:45:34.550Z,0.80
2022-12-23T12:48:22.515Z,0.73
2022-12-23T12:51:09.410Z,0.70
2022-12-23T12:53:41.035Z,0.70
2022-12-23T12:56:18.798Z,0.98
2022-12-23T12:58:46.056Z,0.68
2022-12-23T13:01:48.533Z,0.57
2022-12-23T13:04:25.121Z,0.75
2022-12-23T13:07:02.561Z,0.80
2022-12-23T13:10:03.492Z,1.63
2022-12-23T13:12:39.382Z,0.88
2022-12-23T13:15:24.102Z,0.70
2022-12-23T13:18:38.935Z,0.77
2022-12-23T13:21:25.200Z,1.17
2022-12-23T13:24:10.855Z,0.80
2022-12-23T13:26:39.560Z,0.80
2022-12-23T13:29:32.130Z,0.90
2022-12-23T13:32:05.536Z,1.42
2022-12-23T13:34:49.483Z,0.90
2022-12-23T13:37:33.717Z,0.90
2022-12-23T13:40:12.395Z,0.98
2022-12-23T13:42:52.383Z,1.00
2022-12-23T13:45:21.521Z,1.00
2022-12-23T13:48:29.197Z,0.77
2022-12-23T13:51:37.596Z,1.00
2022-12-23T13:54:22.819Z,0.68
2022-12-23T13:57:01.406Z,0.88
2022-12-23T13:59:40.128Z,1.20
2022-12-23T14:02:36.342Z,0.60
2022-12-23T14:05:26.542Z,0.50
2022-12-23T14:07:54.666Z,0.50
2022-12-23T14:10:24.511Z,0.40
2022-12-23T14:12:53.082Z,0.63
2022-12-23T14:15:46.473Z,0.57
2022-12-23T14:18:30.209Z,0.70
2022-12-23T14:21:33.065Z,0.50
2022-12-23T14:24:13.426Z,0.52
2022-12-23T14:26:49.370Z,0.47
2022-12-23T14:29:46.807Z,0.55
2022-12-23T14:32:34.316Z,0.47
2022-12-23T14:35:24.225Z,0.52
2022-12-23T14:38:11.140Z,0.32
2022-12-23T14:40:38.282Z,0.47
2022-12-23T14:43:26.631Z,0.50
2022-12-23T14:45:58.623Z,0.50
2022-12-23T14:48:44.461Z,0.60
2022-12-23T14:51:14.605Z,0.40
2022-12-23T14:53:59.471Z,1.17
2022-12-23T14:56:29.484Z,0.75
2022-12-23T14:59:08.056Z,1.00
2022-12-23T15:01:51.669Z,0.70
2022-12-23T15:04:25.965Z,0.40
2022-12-23T15:07:08.231Z,0.60
2022-12-23T15:09:39.725Z,0.30
2022-12-23T15:12:15.262Z,0.50
2022-12-23T15:14:52.568Z,0.57
2022-12-23T15:17:32.243Z,0.50
2022-12-23T15:20:22.364Z,0.80
2022-12-23T15:22:50.048Z,0.80
2022-12-23T15:25:32.388Z,0.80
2022-12-23T15:28:02.482Z,0.60
2022-12-23T15:30:35.031Z,1.30
2022-12-23T15:33:04.385Z,0.93
2022-12-23T15:35:34.772Z,1.77
2022-12-23T15:38:03.206Z,0.85
2022-12-23T15:40:34.963Z,0.80
2022-12-23T15:43:03.287Z,0.93
2022-12-23T15:45:41.355Z,0.70
2022-12-23T15:48:22.997Z,1.20
2022-12-23T15:50:53.605Z,0.88
2022-12-23T15:53:21.090Z,0.60
2022-12-23T15:55:50.029Z,1.05
2022-12-23T15:58:21.209Z,0.60
2022-12-23T16:00:57.701Z,0.68
2022-12-23T16:03:32.232Z,0.70
2022-12-23T16:06:10.640Z,0.60
2022-12-23T16:08:38.256Z,0.60
2022-12-23T16:11:19.245Z,0.90
2022-12-23T16:14:01.349Z,0.70
2022-12-23T16:16:33.075Z,0.80
2022-12-23T16:19:00.553Z,0.63
2022-12-23T16:21:34.894Z,0.68
2022-12-23T16:24:07.093Z,0.40
2022-12-23T16:26:43.369Z,0.50
2022-12-23T16:29:11.641Z,0.60
2022-12-23T16:31:42.898Z,0.50
2022-12-23T16:34:13.497Z,0.63
2022-12-23T16:36:40.534Z,0.60
2022-12-23T16:39:07.624Z,0.55
2022-12-23T16:41:35.607Z,0.90
2022-12-23T16:44:03.671Z,0.73
2022-12-23T16:46:38.043Z,0.70
2022-12-23T16:49:08.389Z,0.52
2022-12-23T16:51:36.665Z,0.70
2022-12-23T16:54:04.286Z,0.35
2022-12-23T16:56:36.995Z,0.50
2022-12-23T16:59:04.679Z,0.70
2022-12-23T17:01:35.315Z,0.50
2022-12-23T17:04:02.632Z,1.55
2022-12-23T17:06:30.224Z,0.70
2022-12-23T17:08:57.438Z,0.80
2022-12-23T17:11:26.014Z,0.70
2022-12-23T17:13:56.709Z,1.00
2022-12-23T17:16:28.603Z,0.80
2022-12-23T17:18:56.927Z,0.60
2022-12-23T17:21:29.469Z,0.70
2022-12-23T17:24:04.428Z,0.52
2022-12-23T17:26:31.488Z,0.60
2022-12-23T17:28:58.681Z,1.00
2022-12-23T17:31:27.241Z,0.60
2022-12-23T17:33:54.628Z,0.60
2022-12-23T17:36:22.290Z,0.52
2022-12-23T17:38:49.744Z,0.70
2022-12-23T17:41:34.716Z,0.80
2022-12-23T17:46:29.386Z,0.57
2022-12-23T17:48:58.924Z,0.57
2022-12-23T17:51:27.239Z,0.50
2022-12-23T17:53:58.007Z,0.45
2022-12-23T17:56:27.807Z,0.52
2022-12-23T17:58:55.060Z,0.57
2022-12-23T18:01:25.639Z,0.60
2022-12-23T18:03:53.666Z,0.60
2022-12-23T18:06:22.512Z,0.50
2022-12-23T18:08:49.911Z,0.70
2022-12-23T18:11:39.650Z,0.50
2022-12-23T18:14:13.173Z,0.52
2022-12-23T18:16:40.270Z,0.60
2022-12-23T18:19:17.729Z,0.95
2022-12-23T18:21:44.668Z,0.70
2022-12-23T18:24:11.648Z,0.68
2022-12-23T18:26:38.781Z,0.70
2022-12-23T18:29:05.813Z,0.80
2022-12-23T18:31:33.254Z,0.60
2022-12-23T18:34:00.287Z,0.60
2022-12-23T18:36:31.148Z,0.60
2022-12-23T18:38:58.384Z,0.60
2022-12-23T18:41:26.416Z,0.73
2022-12-23T18:43:54.334Z,0.90
2022-12-23T18:46:22.013Z,0.82
2022-12-23T18:48:49.740Z,1.20
2022-12-23T18:51:18.450Z,0.75
2022-12-23T18:53:46.866Z,0.70
2022-12-23T18:56:15.740Z,0.80
2022-12-23T18:58:42.858Z,0.80
2022-12-23T19:01:18.281Z,0.63
2022-12-23T19:03:45.656Z,1.00
2022-12-23T19:06:14.695Z,1.40
2022-12-23T19:08:43.472Z,1.10
2022-12-23T19:11:16.537Z,1.90
2022-12-23T19:13:43.640Z,1.92
2022-12-23T19:16:19.359Z,1.52
2022-12-23T19:18:47.825Z,1.10
2022-12-23T19:21:16.391Z,1.67
2022-12-23T19:23:44.285Z,1.48
2022-12-23T19:26:13.174Z,1.00
2022-12-23T19:28:41.770Z,1.40
2022-12-23T19:31:14.418Z,1.67
2022-12-23T19:33:44.491Z,0.95
2022-12-23T19:36:13.684Z,1.60
2022-12-23T19:38:41.129Z,2.00
2022-12-23T19:41:08.541Z,1.20
2022-12-23T19:43:39.435Z,0.95
2022-12-23T19:46:09.235Z,1.42
2022-12-23T19:48:37.128Z,1.50
2022-12-23T19:51:09.734Z,1.20
2022-12-23T19:53:37.243Z,1.10
2022-12-23T19:56:07.487Z,1.00
2022-12-23T19:58:38.080Z,1.20
2022-12-23T20:01:37.616Z,1.52
2022-12-23T20:04:04.862Z,1.60
2022-12-23T20:06:34.833Z,0.60
2022-12-23T20:09:04.405Z,0.60
2022-12-23T20:11:38.352Z,1.30
2022-12-23T20:14:05.899Z,1.40
2022-12-23T20:16:33.931Z,1.20
2022-12-23T20:19:00.979Z,1.10
2022-12-23T20:21:27.943Z,1.42
2022-12-23T20:23:54.982Z,1.60
2022-12-23T20:26:23.701Z,1.60
2022-12-23T20:28:51.454Z,1.10
2022-12-23T20:31:20.040Z,0.82
2022-12-23T20:33:47.884Z,1.10
2022-12-23T20:36:17.894Z,1.20
2022-12-23T20:38:47.085Z,0.98
2022-12-23T20:41:20.057Z,1.02
2022-12-23T20:43:57.039Z,0.77
2022-12-23T20:46:34.623Z,1.23
2022-12-23T20:49:01.889Z,1.00
2022-12-23T20:51:28.915Z,1.70
2022-12-23T20:54:00.120Z,0.70
2022-12-23T20:56:29.413Z,0.65
2022-12-23T20:58:57.917Z,0.50
2022-12-23T21:01:31.969Z,0.80
2022-12-23T21:04:01.638Z,1.00
2022-12-23T21:06:31.036Z,0.60
2022-12-23T21:09:00.049Z,0.60
2022-12-23T21:11:32.629Z,0.80
2022-12-23T21:14:06.249Z,0.50
2022-12-23T21:16:35.832Z,0.60
2022-12-23T21:19:04.017Z,0.52
2022-12-23T21:21:32.008Z,0.68
2022-12-23T21:24:01.465Z,0.60
2022-12-23T21:26:30.281Z,1.05
2022-12-23T21:28:59.788Z,0.70
2022-12-23T21:31:28.006Z,1.20
2022-12-23T21:33:55.321Z,0.80
2022-12-23T21:36:25.176Z,0.60
2022-12-23T21:38:52.617Z,0.80
2022-12-23T21:41:22.392Z,0.65
2022-12-23T21:43:50.115Z,0.80
2022-12-23T21:46:20.341Z,0.98
2022-12-23T21:48:48.254Z,0.80
2022-12-23T21:51:20.132Z,0.80
2022-12-23T21:53:49.652Z,1.23
2022-12-23T21:56:19.706Z,0.75
2022-12-23T21:58:47.085Z,0.90
2022-12-23T22:01:17.229Z,1.02
2022-12-23T22:03:45.798Z,1.00
2022-12-23T22:06:18.864Z,1.30
2022-12-23T22:08:45.911Z,0.80
2022-12-23T22:11:19.311Z,1.02
2022-12-23T22:13:47.155Z,0.73
2022-12-23T22:16:17.393Z,0.90
2022-12-23T22:18:44.683Z,0.93
2022-12-23T22:21:16.901Z,0.85
2022-12-23T22:23:44.145Z,1.00
2022-12-23T22:26:17.443Z,0.90
2022-12-23T22:28:48.025Z,0.93
2022-12-23T22:31:18.852Z,1.10
2022-12-23T22:33:46.072Z,0.80
2022-12-23T22:36:14.649Z,1.23
2022-12-23T22:38:42.465Z,0.95
2022-12-23T22:41:10.832Z,0.90
2022-12-23T22:43:37.988Z,0.93
2022-12-23T22:46:05.653Z,1.13
2022-12-23T22:48:33.472Z,1.00
2022-12-23T22:51:10.887Z,0.90
2022-12-23T22:53:37.894Z,0.90
2022-12-23T22:56:05.963Z,1.00
2022-12-23T22:58:34.014Z,1.13
2022-12-23T23:01:01.433Z,1.10
2022-12-23T23:03:29.350Z,0.90
2022-12-23T23:06:05.950Z,1.23
2022-12-23T23:08:34.483Z,1.00
2022-12-23T23:11:03.986Z,1.45
2022-12-23T23:13:34.394Z,1.15
2022-12-23T23:16:02.417Z,1.25
2022-12-23T23:18:30.590Z,1.00
2022-12-23T23:20:57.924Z,1.88
2022-12-23T23:23:25.401Z,1.13
2022-12-23T23:25:52.550Z,0.93
2022-12-23T23:28:19.616Z,1.15
2022-12-23T23:30:46.961Z,0.88
2022-12-23T23:33:13.974Z,1.05
2022-12-23T23:35:40.939Z,1.25
2022-12-23T23:38:09.135Z,1.10
2022-12-23T23:40:36.483Z,1.15
2022-12-23T23:43:04.350Z,0.90
2022-12-23T23:45:31.386Z,1.25
2022-12-23T23:47:58.536Z,0.80
2022-12-23T23:50:25.663Z,0.88
2022-12-23T23:52:52.642Z,1.00
2022-12-23T23:55:19.729Z,0.80
2022-12-23T23:57:46.890Z,1.27
